createdAt,value
2017-02-19T00:00:02.717Z,929.29
2017-02-19T00:00:07.305Z,929.25
2017-02-19T00:00:11.861Z,929.28
2017-02-19T00:00:16.284Z,929.29
2017-02-19T00:00:21.008Z,929.33
2017-02-19T00:00:25.724Z,929.29
2017-02-19T00:00:30.273Z,929.3
2017-02-19T00:00:34.967Z,929.27
2017-02-19T00:00:39.689Z,929.29
2017-02-19T00:00:44.387Z,929.28
2017-02-19T00:00:49.126Z,929.3
2017-02-19T00:00:53.970Z,929.29
2017-02-19T00:00:58.721Z,929.3
2017-02-19T00:01:03.621Z,929.29
2017-02-19T00:01:08.205Z,929.28
2017-02-19T00:01:12.933Z,929.26
2017-02-19T00:01:18.705Z,929.29
2017-02-19T00:01:23.414Z,929.27
2017-02-19T00:01:28.114Z,929.28
2017-02-19T00:01:32.799Z,929.3
2017-02-19T00:01:37.542Z,929.31
2017-02-19T00:01:42.250Z,929.26
2017-02-19T00:01:46.961Z,929.3
2017-02-19T00:01:51.669Z,929.29
2017-02-19T00:01:56.366Z,929.29
2017-02-19T00:02:01.054Z,929.29
2017-02-19T00:02:05.608Z,929.23
2017-02-19T00:02:10.168Z,929.27
2017-02-19T00:02:14.730Z,929.31
2017-02-19T00:02:19.457Z,929.28
2017-02-19T00:02:24.023Z,929.29
2017-02-19T00:02:28.722Z,929.26
2017-02-19T00:02:33.420Z,929.27
2017-02-19T00:02:38.124Z,929.29
2017-02-19T00:02:42.826Z,929.27
2017-02-19T00:02:47.547Z,929.29
2017-02-19T00:02:52.259Z,929.23
2017-02-19T00:02:56.973Z,929.22
2017-02-19T00:03:01.710Z,929.27
2017-02-19T00:03:06.405Z,929.28
2017-02-19T00:03:10.986Z,929.24
2017-02-19T00:03:15.559Z,929.25
2017-02-19T00:03:20.282Z,929.26
2017-02-19T00:03:24.848Z,929.28
2017-02-19T00:03:29.585Z,929.24
2017-02-19T00:03:34.314Z,929.28
2017-02-19T00:03:39.022Z,929.27
2017-02-19T00:03:43.745Z,929.25
2017-02-19T00:03:48.459Z,929.26
2017-02-19T00:03:53.177Z,929.27
2017-02-19T00:03:57.892Z,929.26
2017-02-19T00:04:02.657Z,929.2
2017-02-19T00:04:07.098Z,929.26
2017-02-19T00:04:11.521Z,929.29
2017-02-19T00:04:15.926Z,929.28
2017-02-19T00:04:20.622Z,929.27
2017-02-19T00:04:25.175Z,929.26
2017-02-19T00:04:29.877Z,929.25
2017-02-19T00:04:34.467Z,929.28
2017-02-19T00:04:39.032Z,929.26
2017-02-19T00:04:43.716Z,929.27
2017-02-19T00:04:48.415Z,929.25
2017-02-19T00:04:53.168Z,929.22
2017-02-19T00:04:57.879Z,929.26
2017-02-19T00:05:02.813Z,929.25
2017-02-19T00:05:07.555Z,929.27
2017-02-19T00:05:12.136Z,929.26
2017-02-19T00:05:16.836Z,929.23
2017-02-19T00:05:21.414Z,929.24
2017-02-19T00:05:26.139Z,929.25
2017-02-19T00:05:30.883Z,929.28
2017-02-19T00:05:35.615Z,929.26
2017-02-19T00:05:40.249Z,929.28
2017-02-19T00:05:44.963Z,929.25
2017-02-19T00:05:49.670Z,929.24
2017-02-19T00:05:54.404Z,929.25
2017-02-19T00:05:59.117Z,929.24
2017-02-19T00:06:04.274Z,929.27
2017-02-19T00:06:08.541Z,929.27
2017-02-19T00:06:12.959Z,929.22
2017-02-19T00:06:17.816Z,929.25
2017-02-19T00:06:22.541Z,929.19
2017-02-19T00:06:27.131Z,929.22
2017-02-19T00:06:31.864Z,929.23
2017-02-19T00:06:36.581Z,929.24
2017-02-19T00:06:41.287Z,929.26
2017-02-19T00:06:46.001Z,929.24
2017-02-19T00:06:50.705Z,929.25
2017-02-19T00:06:55.400Z,929.25
2017-02-19T00:07:00.154Z,929.19
2017-02-19T00:07:04.848Z,929.21
2017-02-19T00:07:09.408Z,929.23
2017-02-19T00:07:14.113Z,929.23
2017-02-19T00:07:18.675Z,929.2
2017-02-19T00:07:23.376Z,929.22
2017-02-19T00:07:28.065Z,929.21
2017-02-19T00:07:32.787Z,929.24
2017-02-19T00:07:37.518Z,929.23
2017-02-19T00:07:42.244Z,929.25
2017-02-19T00:07:46.940Z,929.22
2017-02-19T00:07:51.644Z,929.24
2017-02-19T00:07:56.373Z,929.21
2017-02-19T00:08:00.917Z,929.22
2017-02-19T00:08:05.820Z,929.23
2017-02-19T00:08:10.237Z,929.23
2017-02-19T00:08:14.948Z,929.22
2017-02-19T00:08:19.538Z,929.24
2017-02-19T00:08:24.254Z,929.23
2017-02-19T00:08:28.985Z,929.22
2017-02-19T00:08:33.683Z,929.26
2017-02-19T00:08:38.410Z,929.21
2017-02-19T00:08:43.147Z,929.23
2017-02-19T00:08:47.872Z,929.24
2017-02-19T00:08:52.456Z,929.24
2017-02-19T00:08:57.139Z,929.24
2017-02-19T00:09:01.901Z,929.21
2017-02-19T00:09:06.618Z,929.2
2017-02-19T00:09:11.350Z,929.21
2017-02-19T00:09:15.909Z,929.22
2017-02-19T00:09:20.487Z,929.25
2017-02-19T00:09:25.267Z,929.18
2017-02-19T00:09:29.976Z,929.23
2017-02-19T00:09:34.700Z,929.22
2017-02-19T00:09:39.129Z,929.2
2017-02-19T00:09:43.702Z,929.21
2017-02-19T00:09:48.406Z,929.21
2017-02-19T00:09:53.111Z,929.2
2017-02-19T00:09:57.707Z,929.22
2017-02-19T00:10:02.397Z,929.2
2017-02-19T00:10:06.962Z,929.22
2017-02-19T00:10:11.672Z,929.2
2017-02-19T00:10:16.387Z,929.22
2017-02-19T00:10:21.088Z,929.2
2017-02-19T00:10:25.665Z,929.23
2017-02-19T00:10:30.377Z,929.22
2017-02-19T00:10:34.927Z,929.21
2017-02-19T00:10:39.649Z,929.21
2017-02-19T00:10:44.383Z,929.21
2017-02-19T00:10:49.100Z,929.19
2017-02-19T00:10:53.682Z,929.2
2017-02-19T00:10:58.403Z,929.2
2017-02-19T00:11:03.354Z,929.24
2017-02-19T00:11:08.056Z,929.2
2017-02-19T00:11:12.612Z,929.2
2017-02-19T00:11:17.471Z,929.19
2017-02-19T00:11:22.178Z,929.21
2017-02-19T00:11:26.738Z,929.17
2017-02-19T00:11:31.457Z,929.23
2017-02-19T00:11:36.036Z,929.19
2017-02-19T00:11:40.764Z,929.21
2017-02-19T00:11:45.465Z,929.2
2017-02-19T00:11:50.029Z,929.22
2017-02-19T00:11:54.731Z,929.16
2017-02-19T00:11:59.426Z,929.19
2017-02-19T00:12:03.978Z,929.2
2017-02-19T00:12:08.538Z,929.16
2017-02-19T00:12:13.082Z,929.22
2017-02-19T00:12:17.561Z,929.21
2017-02-19T00:12:22.122Z,929.2
2017-02-19T00:12:26.686Z,929.23
2017-02-19T00:12:31.448Z,929.19
2017-02-19T00:12:36.035Z,929.2
2017-02-19T00:12:40.742Z,929.2
2017-02-19T00:12:45.504Z,929.17
2017-02-19T00:12:50.221Z,929.18
2017-02-19T00:12:54.971Z,929.19
2017-02-19T00:12:59.666Z,929.21
2017-02-19T00:13:04.525Z,929.21
2017-02-19T00:13:09.231Z,929.17
2017-02-19T00:13:13.970Z,929.21
2017-02-19T00:13:18.551Z,929.19
2017-02-19T00:13:23.253Z,929.18
2017-02-19T00:13:27.971Z,929.14
2017-02-19T00:13:32.523Z,929.12
2017-02-19T00:13:37.093Z,929.13
2017-02-19T00:13:41.780Z,929.15
2017-02-19T00:13:46.525Z,929.14
2017-02-19T00:13:51.247Z,929.22
2017-02-19T00:13:55.948Z,929.16
2017-02-19T00:14:00.665Z,929.17
2017-02-19T00:14:05.736Z,929.17
2017-02-19T00:14:10.142Z,929.17
2017-02-19T00:14:14.840Z,929.17
2017-02-19T00:14:19.561Z,929.15
2017-02-19T00:14:24.122Z,929.19
2017-02-19T00:14:28.833Z,929.13
2017-02-19T00:14:33.385Z,929.18
2017-02-19T00:14:38.079Z,929.19
2017-02-19T00:14:42.784Z,929.16
2017-02-19T00:14:47.492Z,929.18
2017-02-19T00:14:52.022Z,929.13
2017-02-19T00:14:56.763Z,929.19
2017-02-19T00:15:01.494Z,929.2
2017-02-19T00:15:06.086Z,929.19
2017-02-19T00:15:10.612Z,929.19
2017-02-19T00:15:15.042Z,929.19
2017-02-19T00:15:19.772Z,929.19
2017-02-19T00:15:24.333Z,929.2
2017-02-19T00:15:29.058Z,929.18
2017-02-19T00:15:33.754Z,929.16
2017-02-19T00:15:38.468Z,929.16
2017-02-19T00:15:43.181Z,929.17
2017-02-19T00:15:47.893Z,929.16
2017-02-19T00:15:52.602Z,929.17
2017-02-19T00:15:57.300Z,929.16
2017-02-19T00:16:02.004Z,929.19
2017-02-19T00:16:06.556Z,929.14
2017-02-19T00:16:10.956Z,929.09
2017-02-19T00:16:15.386Z,929.16
2017-02-19T00:16:20.334Z,929.15
2017-02-19T00:16:25.046Z,929.15
2017-02-19T00:16:29.760Z,929.11
2017-02-19T00:16:34.448Z,929.15
2017-02-19T00:16:39.163Z,929.17
2017-02-19T00:16:43.878Z,929.13
2017-02-19T00:16:48.604Z,929.18
2017-02-19T00:16:53.310Z,929.16
2017-02-19T00:16:58.021Z,929.18
2017-02-19T00:17:02.839Z,929.13
2017-02-19T00:17:07.254Z,929.15
2017-02-19T00:17:11.800Z,929.13
2017-02-19T00:17:16.539Z,929.14
2017-02-19T00:17:21.101Z,929.17
2017-02-19T00:17:25.662Z,929.14
2017-02-19T00:17:30.226Z,929.16
2017-02-19T00:17:34.928Z,929.15
2017-02-19T00:17:39.346Z,929.1
2017-02-19T00:17:44.074Z,929.14
2017-02-19T00:17:48.800Z,929.15
2017-02-19T00:17:53.221Z,929.15
2017-02-19T00:17:57.782Z,929.1
2017-02-19T00:18:02.849Z,929.11
2017-02-19T00:18:07.407Z,929.14
2017-02-19T00:18:11.984Z,929.12
2017-02-19T00:18:16.375Z,929.1
2017-02-19T00:18:20.792Z,929.13
2017-02-19T00:18:25.350Z,929.12
2017-02-19T00:18:30.043Z,929.14
2017-02-19T00:18:34.602Z,929.13
2017-02-19T00:18:39.183Z,929.1
2017-02-19T00:18:43.751Z,929.12
2017-02-19T00:18:48.473Z,929.14
2017-02-19T00:18:53.042Z,929.14
2017-02-19T00:18:57.747Z,929.12
2017-02-19T00:19:02.490Z,929.13
2017-02-19T00:19:07.188Z,929.12
2017-02-19T00:19:11.913Z,929.15
2017-02-19T00:19:16.330Z,929.13
2017-02-19T00:19:20.872Z,929.12
2017-02-19T00:19:25.584Z,929.15
2017-02-19T00:19:30.141Z,929.12
2017-02-19T00:19:34.834Z,929.14
2017-02-19T00:19:39.415Z,929.14
2017-02-19T00:19:43.973Z,929.12
2017-02-19T00:19:48.695Z,929.13
2017-02-19T00:19:53.397Z,929.15
2017-02-19T00:19:58.125Z,929.12
2017-02-19T00:20:02.841Z,929.11
2017-02-19T00:20:07.406Z,929.12
2017-02-19T00:20:11.955Z,929.12
2017-02-19T00:20:16.382Z,929.11
2017-02-19T00:20:20.947Z,929.12
2017-02-19T00:20:25.516Z,929.1
2017-02-19T00:20:30.095Z,929.1
2017-02-19T00:20:34.876Z,929.07
2017-02-19T00:20:39.581Z,929.1
2017-02-19T00:20:44.145Z,929.1
2017-02-19T00:20:48.842Z,929.13
2017-02-19T00:20:53.396Z,929.1
2017-02-19T00:20:58.099Z,929.11
2017-02-19T00:21:02.801Z,929.06
2017-02-19T00:21:07.372Z,929.08
2017-02-19T00:21:11.958Z,929.08
2017-02-19T00:21:16.641Z,929.07
2017-02-19T00:21:21.493Z,929.09
2017-02-19T00:21:26.187Z,929.09
2017-02-19T00:21:30.915Z,929.11
2017-02-19T00:21:35.454Z,929.1
2017-02-19T00:21:40.045Z,929.12
2017-02-19T00:21:44.747Z,929.08
2017-02-19T00:21:49.437Z,929.08
2017-02-19T00:21:54.182Z,929.09
2017-02-19T00:21:58.735Z,929.1
2017-02-19T00:22:03.446Z,929.1
2017-02-19T00:22:08.027Z,929.11
2017-02-19T00:22:12.453Z,929.11
2017-02-19T00:22:17.021Z,929.07
2017-02-19T00:22:21.738Z,929.07
2017-02-19T00:22:26.288Z,929.1
2017-02-19T00:22:30.844Z,929.09
2017-02-19T00:22:35.543Z,929.08
2017-02-19T00:22:40.096Z,929.07
2017-02-19T00:22:44.691Z,929.09
2017-02-19T00:22:49.397Z,929.12
2017-02-19T00:22:54.112Z,929.1
2017-02-19T00:22:58.830Z,929.07
2017-02-19T00:23:03.401Z,929.08
2017-02-19T00:23:08.094Z,929.05
2017-02-19T00:23:12.653Z,929.09
2017-02-19T00:23:17.197Z,929.07
2017-02-19T00:23:21.748Z,929.09
2017-02-19T00:23:26.461Z,929.09
2017-02-19T00:23:31.022Z,929.07
2017-02-19T00:23:35.735Z,929.04
2017-02-19T00:23:40.465Z,929.03
2017-02-19T00:23:45.161Z,929.08
2017-02-19T00:23:49.727Z,929.06
2017-02-19T00:23:54.457Z,929.06
2017-02-19T00:23:59.156Z,929.08
2017-02-19T00:24:03.966Z,929.08
2017-02-19T00:24:08.540Z,929.03
2017-02-19T00:24:13.260Z,929.1
2017-02-19T00:24:17.663Z,929.07
2017-02-19T00:24:22.215Z,929.08
2017-02-19T00:24:26.943Z,929.11
2017-02-19T00:24:31.658Z,929.1
2017-02-19T00:24:36.373Z,929.1
2017-02-19T00:24:41.091Z,929.09
2017-02-19T00:24:45.796Z,929.09
2017-02-19T00:24:50.495Z,929.09
2017-02-19T00:24:55.216Z,929.08
2017-02-19T00:24:59.834Z,929.09
2017-02-19T00:25:04.192Z,929.07
2017-02-19T00:25:08.746Z,929.07
2017-02-19T00:25:13.519Z,929.06
2017-02-19T00:25:17.921Z,929.08
2017-02-19T00:25:22.611Z,929.07
2017-02-19T00:25:27.174Z,929.06
2017-02-19T00:25:31.903Z,928.98
2017-02-19T00:25:36.622Z,929.07
2017-02-19T00:25:41.341Z,929.07
2017-02-19T00:25:46.054Z,929.06
2017-02-19T00:25:50.753Z,929.07
2017-02-19T00:25:55.325Z,929.07
2017-02-19T00:25:59.916Z,929.07
2017-02-19T00:26:04.674Z,929.1
2017-02-19T00:26:09.123Z,929.07
2017-02-19T00:26:13.545Z,929.07
2017-02-19T00:26:18.270Z,929.04
2017-02-19T00:26:22.692Z,929.08
2017-02-19T00:26:27.387Z,929.04
2017-02-19T00:26:32.106Z,929.06
2017-02-19T00:26:36.819Z,929.05
2017-02-19T00:26:41.517Z,929.06
2017-02-19T00:26:46.216Z,929.08
2017-02-19T00:26:50.936Z,929.04
2017-02-19T00:26:55.648Z,929.06
2017-02-19T00:27:00.370Z,929.02
2017-02-19T00:27:05.014Z,929.07
2017-02-19T00:27:09.583Z,929.03
2017-02-19T00:27:14.293Z,929.05
2017-02-19T00:27:18.690Z,929.07
2017-02-19T00:27:23.098Z,929.05
2017-02-19T00:27:27.682Z,929.04
2017-02-19T00:27:32.398Z,929.04
2017-02-19T00:27:37.116Z,929.06
2017-02-19T00:27:41.825Z,929.06
2017-02-19T00:27:46.564Z,929.03
2017-02-19T00:27:51.142Z,929.01
2017-02-19T00:27:55.882Z,929.06
2017-02-19T00:28:00.582Z,929.06
2017-02-19T00:28:05.545Z,929.03
2017-02-19T00:28:10.220Z,929.05
2017-02-19T00:28:14.641Z,929.04
2017-02-19T00:28:19.338Z,929.03
2017-02-19T00:28:23.903Z,929.04
2017-02-19T00:28:28.474Z,929.04
2017-02-19T00:28:33.204Z,929.04
2017-02-19T00:28:37.892Z,929.06
2017-02-19T00:28:42.610Z,929.02
2017-02-19T00:28:47.343Z,929.03
2017-02-19T00:28:51.898Z,929.06
2017-02-19T00:28:56.636Z,929.03
2017-02-19T00:29:01.369Z,929.05
2017-02-19T00:29:05.954Z,929.07
2017-02-19T00:29:10.676Z,929.06
2017-02-19T00:29:15.103Z,929.05
2017-02-19T00:29:19.824Z,929.02
2017-02-19T00:29:24.360Z,929.01
2017-02-19T00:29:28.787Z,929
2017-02-19T00:29:33.371Z,929.04
2017-02-19T00:29:37.941Z,929.06
2017-02-19T00:29:42.634Z,929.05
2017-02-19T00:29:47.378Z,929.01
2017-02-19T00:29:52.093Z,929.07
2017-02-19T00:29:56.798Z,929.05
2017-02-19T00:30:01.528Z,929.07
2017-02-19T00:30:06.243Z,929.04
2017-02-19T00:30:10.824Z,929.01
2017-02-19T00:30:15.429Z,929.01
2017-02-19T00:30:20.138Z,928.96
2017-02-19T00:30:24.663Z,929.03
2017-02-19T00:30:29.341Z,929.04
2017-02-19T00:30:34.045Z,929.04
2017-02-19T00:30:38.609Z,929.03
2017-02-19T00:30:43.315Z,928.99
2017-02-19T00:30:48.075Z,928.97
2017-02-19T00:30:52.909Z,929.04
2017-02-19T00:30:57.601Z,928.91
2017-02-19T00:31:02.220Z,929.05
2017-02-19T00:31:06.903Z,928.99
2017-02-19T00:31:11.603Z,929.02
2017-02-19T00:31:16.150Z,929.03
2017-02-19T00:31:21.191Z,929.02
2017-02-19T00:31:25.758Z,929.04
2017-02-19T00:31:30.309Z,929
2017-02-19T00:31:35.024Z,928.97
2017-02-19T00:31:39.713Z,929.03
2017-02-19T00:31:44.424Z,929.01
2017-02-19T00:31:49.129Z,929.01
2017-02-19T00:31:53.695Z,929
2017-02-19T00:31:58.397Z,928.98
2017-02-19T00:32:03.464Z,928.96
2017-02-19T00:32:08.025Z,928.96
2017-02-19T00:32:12.473Z,928.99
2017-02-19T00:32:17.008Z,929.01
2017-02-19T00:32:21.608Z,928.99
2017-02-19T00:32:26.319Z,928.95
2017-02-19T00:32:30.880Z,928.98
2017-02-19T00:32:35.584Z,928.99
2017-02-19T00:32:40.153Z,928.99
2017-02-19T00:32:44.861Z,928.98
2017-02-19T00:32:49.576Z,928.94
2017-02-19T00:32:54.265Z,929.03
2017-02-19T00:32:58.961Z,928.96
2017-02-19T00:33:03.812Z,929.02
2017-02-19T00:33:08.520Z,928.98
2017-02-19T00:33:13.099Z,928.99
2017-02-19T00:33:17.810Z,929.01
2017-02-19T00:33:22.512Z,928.93
2017-02-19T00:33:27.086Z,928.98
2017-02-19T00:33:31.662Z,928.97
2017-02-19T00:33:36.392Z,928.95
2017-02-19T00:33:41.132Z,928.95
2017-02-19T00:33:45.851Z,928.97
2017-02-19T00:33:50.575Z,928.99
2017-02-19T00:33:55.289Z,928.97
2017-02-19T00:34:00.006Z,928.99
2017-02-19T00:34:04.974Z,928.9
2017-02-19T00:34:09.251Z,928.91
2017-02-19T00:34:13.809Z,928.96
2017-02-19T00:34:18.375Z,929
2017-02-19T00:34:22.935Z,929
2017-02-19T00:34:27.500Z,928.99
2017-02-19T00:34:32.189Z,928.98
2017-02-19T00:34:36.749Z,928.95
2017-02-19T00:34:41.450Z,928.95
2017-02-19T00:34:46.159Z,928.97
2017-02-19T00:34:50.746Z,928.92
2017-02-19T00:34:55.428Z,928.94
2017-02-19T00:35:00.137Z,928.93
2017-02-19T00:35:04.865Z,928.94
2017-02-19T00:35:09.434Z,928.98
2017-02-19T00:35:14.001Z,928.95
2017-02-19T00:35:18.718Z,928.94
2017-02-19T00:35:23.298Z,928.94
2017-02-19T00:35:28.014Z,928.95
2017-02-19T00:35:32.769Z,928.94
2017-02-19T00:35:37.496Z,928.93
2017-02-19T00:35:42.041Z,928.98
2017-02-19T00:35:46.764Z,928.95
2017-02-19T00:35:51.457Z,928.98
2017-02-19T00:35:56.156Z,928.96
2017-02-19T00:36:00.889Z,929.01
2017-02-19T00:36:05.631Z,928.95
2017-02-19T00:36:10.342Z,928.97
2017-02-19T00:36:14.918Z,928.95
2017-02-19T00:36:19.612Z,928.94
2017-02-19T00:36:24.441Z,928.98
2017-02-19T00:36:29.148Z,928.95
2017-02-19T00:36:33.876Z,928.97
2017-02-19T00:36:38.579Z,928.92
2017-02-19T00:36:43.282Z,928.97
2017-02-19T00:36:48.014Z,928.93
2017-02-19T00:36:52.737Z,928.91
2017-02-19T00:36:57.440Z,928.91
2017-02-19T00:37:02.149Z,928.88
2017-02-19T00:37:06.831Z,928.92
2017-02-19T00:37:11.550Z,928.96
2017-02-19T00:37:15.955Z,928.95
2017-02-19T00:37:20.503Z,928.96
2017-02-19T00:37:25.067Z,928.99
2017-02-19T00:37:29.612Z,929
2017-02-19T00:37:34.197Z,928.96
2017-02-19T00:37:38.924Z,928.94
2017-02-19T00:37:43.634Z,928.95
2017-02-19T00:37:48.356Z,928.95
2017-02-19T00:37:52.915Z,928.98
2017-02-19T00:37:57.625Z,928.96
2017-02-19T00:38:02.630Z,928.89
2017-02-19T00:38:07.388Z,928.95
2017-02-19T00:38:11.785Z,928.97
2017-02-19T00:38:16.233Z,928.89
2017-02-19T00:38:20.790Z,928.94
2017-02-19T00:38:25.377Z,928.91
2017-02-19T00:38:30.085Z,928.93
2017-02-19T00:38:34.785Z,928.89
2017-02-19T00:38:39.193Z,928.95
2017-02-19T00:38:43.893Z,928.94
2017-02-19T00:38:48.615Z,928.93
2017-02-19T00:38:53.302Z,928.93
2017-02-19T00:38:58.025Z,928.94
2017-02-19T00:39:02.718Z,928.96
2017-02-19T00:39:07.436Z,928.9
2017-02-19T00:39:11.994Z,928.92
2017-02-19T00:39:16.432Z,928.93
2017-02-19T00:39:20.857Z,928.94
2017-02-19T00:39:25.574Z,928.93
2017-02-19T00:39:30.141Z,928.94
2017-02-19T00:39:34.843Z,928.97
2017-02-19T00:39:39.410Z,928.95
2017-02-19T00:39:44.103Z,928.94
2017-02-19T00:39:48.834Z,928.96
2017-02-19T00:39:53.554Z,928.9
2017-02-19T00:39:58.288Z,928.92
2017-02-19T00:40:03.209Z,928.93
2017-02-19T00:40:07.917Z,928.95
2017-02-19T00:40:12.523Z,928.88
2017-02-19T00:40:17.234Z,928.94
2017-02-19T00:40:21.951Z,928.92
2017-02-19T00:40:26.641Z,928.94
2017-02-19T00:40:31.345Z,928.93
2017-02-19T00:40:36.037Z,928.93
2017-02-19T00:40:40.609Z,928.92
2017-02-19T00:40:45.303Z,928.93
2017-02-19T00:40:50.008Z,928.9
2017-02-19T00:40:54.584Z,928.91
2017-02-19T00:40:59.138Z,928.88
2017-02-19T00:41:03.862Z,928.94
2017-02-19T00:41:08.264Z,928.92
2017-02-19T00:41:12.697Z,928.93
2017-02-19T00:41:17.402Z,928.96
2017-02-19T00:41:22.088Z,928.94
2017-02-19T00:41:26.797Z,928.87
2017-02-19T00:41:31.549Z,928.94
2017-02-19T00:41:36.110Z,928.91
2017-02-19T00:41:40.671Z,928.91
2017-02-19T00:41:45.404Z,928.9
2017-02-19T00:41:50.162Z,928.87
2017-02-19T00:41:54.873Z,928.92
2017-02-19T00:41:59.596Z,928.93
2017-02-19T00:42:04.326Z,928.92
2017-02-19T00:42:09.040Z,928.91
2017-02-19T00:42:13.597Z,928.92
2017-02-19T00:42:17.935Z,928.91
2017-02-19T00:42:22.626Z,928.9
2017-02-19T00:42:27.353Z,928.92
2017-02-19T00:42:32.088Z,928.91
2017-02-19T00:42:36.633Z,928.93
2017-02-19T00:42:41.338Z,928.89
2017-02-19T00:42:46.032Z,928.9
2017-02-19T00:42:50.725Z,928.91
2017-02-19T00:42:55.408Z,928.9
2017-02-19T00:43:00.090Z,928.88
2017-02-19T00:43:04.787Z,928.9
2017-02-19T00:43:09.483Z,928.94
2017-02-19T00:43:14.032Z,928.91
2017-02-19T00:43:18.765Z,928.88
2017-02-19T00:43:23.341Z,928.88
2017-02-19T00:43:27.912Z,928.9
2017-02-19T00:43:32.514Z,928.89
2017-02-19T00:43:37.217Z,928.86
2017-02-19T00:43:41.895Z,928.89
2017-02-19T00:43:46.615Z,928.89
2017-02-19T00:43:51.332Z,928.87
2017-02-19T00:43:56.026Z,928.91
2017-02-19T00:44:00.780Z,928.92
2017-02-19T00:44:05.654Z,928.92
2017-02-19T00:44:10.366Z,928.89
2017-02-19T00:44:14.624Z,928.89
2017-02-19T00:44:19.199Z,928.88
2017-02-19T00:44:23.896Z,928.9
2017-02-19T00:44:28.446Z,928.86
2017-02-19T00:44:33.186Z,928.91
2017-02-19T00:44:37.877Z,928.89
2017-02-19T00:44:42.582Z,928.93
2017-02-19T00:44:47.165Z,928.93
2017-02-19T00:44:51.894Z,928.91
2017-02-19T00:44:56.594Z,928.89
2017-02-19T00:45:01.314Z,928.9
2017-02-19T00:45:05.886Z,928.91
2017-02-19T00:45:10.601Z,928.89
2017-02-19T00:45:15.023Z,928.85
2017-02-19T00:45:19.721Z,928.89
2017-02-19T00:45:24.275Z,928.82
2017-02-19T00:45:28.983Z,928.87
2017-02-19T00:45:33.695Z,928.91
2017-02-19T00:45:38.417Z,928.93
2017-02-19T00:45:43.129Z,928.88
2017-02-19T00:45:47.628Z,928.87
2017-02-19T00:45:52.196Z,928.91
2017-02-19T00:45:56.907Z,928.93
2017-02-19T00:46:01.629Z,928.91
2017-02-19T00:46:06.193Z,928.89
2017-02-19T00:46:10.915Z,928.9
2017-02-19T00:46:15.366Z,928.87
2017-02-19T00:46:20.093Z,928.9
2017-02-19T00:46:24.675Z,928.88
2017-02-19T00:46:29.357Z,928.88
2017-02-19T00:46:34.055Z,928.88
2017-02-19T00:46:38.777Z,928.88
2017-02-19T00:46:43.354Z,928.87
2017-02-19T00:46:48.054Z,928.89
2017-02-19T00:46:52.609Z,928.83
2017-02-19T00:46:57.320Z,928.87
2017-02-19T00:47:02.071Z,928.89
2017-02-19T00:47:06.792Z,928.83
2017-02-19T00:47:11.525Z,928.88
2017-02-19T00:47:16.084Z,928.86
2017-02-19T00:47:20.817Z,928.9
2017-02-19T00:47:25.381Z,928.84
2017-02-19T00:47:29.950Z,928.82
2017-02-19T00:47:34.664Z,928.86
2017-02-19T00:47:39.227Z,928.88
2017-02-19T00:47:43.941Z,928.91
2017-02-19T00:47:48.662Z,928.88
2017-02-19T00:47:53.342Z,928.9
2017-02-19T00:47:58.071Z,928.84
2017-02-19T00:48:02.807Z,928.84
2017-02-19T00:48:07.514Z,928.88
2017-02-19T00:48:11.955Z,928.87
2017-02-19T00:48:16.514Z,928.88
2017-02-19T00:48:21.094Z,928.85
2017-02-19T00:48:25.822Z,928.85
2017-02-19T00:48:30.522Z,928.84
2017-02-19T00:48:35.215Z,928.84
2017-02-19T00:48:39.939Z,928.83
2017-02-19T00:48:44.642Z,928.88
2017-02-19T00:48:49.186Z,928.83
2017-02-19T00:48:53.742Z,928.85
2017-02-19T00:48:58.468Z,928.89
2017-02-19T00:49:03.177Z,928.86
2017-02-19T00:49:07.910Z,928.86
2017-02-19T00:49:12.457Z,928.86
2017-02-19T00:49:16.877Z,928.84
2017-02-19T00:49:21.448Z,928.85
2017-02-19T00:49:26.164Z,928.87
2017-02-19T00:49:30.727Z,928.89
2017-02-19T00:49:35.462Z,928.84
2017-02-19T00:49:40.183Z,928.88
2017-02-19T00:49:44.908Z,928.87
2017-02-19T00:49:49.485Z,928.89
2017-02-19T00:49:54.037Z,928.85
2017-02-19T00:49:58.723Z,928.84
2017-02-19T00:50:03.449Z,928.82
2017-02-19T00:50:08.162Z,928.87
2017-02-19T00:50:12.604Z,928.89
2017-02-19T00:50:17.181Z,928.87
2017-02-19T00:50:21.754Z,928.85
2017-02-19T00:50:26.316Z,928.85
2017-02-19T00:50:31.056Z,928.85
2017-02-19T00:50:35.795Z,928.85
2017-02-19T00:50:40.505Z,928.81
2017-02-19T00:50:45.061Z,928.86
2017-02-19T00:50:49.780Z,928.86
2017-02-19T00:50:54.500Z,928.87
2017-02-19T00:50:59.224Z,928.79
2017-02-19T00:51:04.078Z,928.82
2017-02-19T00:51:08.502Z,928.85
2017-02-19T00:51:13.046Z,928.85
2017-02-19T00:51:17.762Z,928.87
2017-02-19T00:51:22.474Z,928.85
2017-02-19T00:51:27.433Z,928.88
2017-02-19T00:51:31.860Z,928.86
2017-02-19T00:51:36.636Z,928.85
2017-02-19T00:51:41.349Z,928.85
2017-02-19T00:51:46.075Z,928.84
2017-02-19T00:51:50.770Z,928.83
2017-02-19T00:51:55.484Z,928.84
2017-02-19T00:52:00.217Z,928.84
2017-02-19T00:52:04.949Z,928.86
2017-02-19T00:52:09.378Z,928.85
2017-02-19T00:52:13.646Z,928.87
2017-02-19T00:52:18.370Z,928.85
2017-02-19T00:52:23.063Z,928.85
2017-02-19T00:52:27.752Z,928.85
2017-02-19T00:52:32.473Z,928.83
2017-02-19T00:52:37.184Z,928.86
2017-02-19T00:52:41.751Z,928.87
2017-02-19T00:52:46.502Z,928.85
2017-02-19T00:52:51.071Z,928.85
2017-02-19T00:52:55.619Z,928.85
2017-02-19T00:53:00.357Z,928.8
2017-02-19T00:53:05.079Z,928.86
2017-02-19T00:53:09.632Z,928.87
2017-02-19T00:53:14.372Z,928.86
2017-02-19T00:53:19.144Z,928.84
2017-02-19T00:53:23.704Z,928.87
2017-02-19T00:53:28.245Z,928.82
2017-02-19T00:53:32.937Z,928.87
2017-02-19T00:53:37.630Z,928.87
2017-02-19T00:53:42.328Z,928.85
2017-02-19T00:53:47.033Z,928.79
2017-02-19T00:53:51.749Z,928.84
2017-02-19T00:53:56.456Z,928.83
2017-02-19T00:54:01.180Z,928.87
2017-02-19T00:54:06.057Z,928.84
2017-02-19T00:54:10.748Z,928.84
2017-02-19T00:54:15.325Z,928.84
2017-02-19T00:54:20.033Z,928.87
2017-02-19T00:54:24.596Z,928.86
2017-02-19T00:54:29.279Z,928.84
2017-02-19T00:54:33.984Z,928.78
2017-02-19T00:54:38.687Z,928.83
2017-02-19T00:54:43.385Z,928.82
2017-02-19T00:54:48.092Z,928.82
2017-02-19T00:54:52.796Z,928.84
2017-02-19T00:54:57.525Z,928.85
2017-02-19T00:55:02.230Z,928.84
2017-02-19T00:55:06.781Z,928.82
2017-02-19T00:55:11.316Z,928.83
2017-02-19T00:55:16.033Z,928.83
2017-02-19T00:55:20.721Z,928.8
2017-02-19T00:55:25.419Z,928.85
2017-02-19T00:55:30.136Z,928.82
2017-02-19T00:55:34.827Z,928.85
2017-02-19T00:55:39.410Z,928.84
2017-02-19T00:55:44.116Z,928.86
2017-02-19T00:55:48.886Z,928.85
2017-02-19T00:55:53.628Z,928.83
2017-02-19T00:55:58.175Z,928.82
2017-02-19T00:56:02.902Z,928.81
2017-02-19T00:56:07.651Z,928.83
2017-02-19T00:56:12.204Z,928.84
2017-02-19T00:56:16.626Z,928.8
2017-02-19T00:56:21.356Z,928.82
2017-02-19T00:56:26.055Z,928.83
2017-02-19T00:56:31.049Z,928.82
2017-02-19T00:56:35.657Z,928.83
2017-02-19T00:56:40.353Z,928.81
2017-02-19T00:56:45.036Z,928.81
2017-02-19T00:56:49.729Z,928.82
2017-02-19T00:56:54.413Z,928.8
2017-02-19T00:56:59.125Z,928.8
2017-02-19T00:57:03.866Z,928.75
2017-02-19T00:57:08.286Z,928.78
2017-02-19T00:57:12.994Z,928.82
2017-02-19T00:57:17.718Z,928.81
2017-02-19T00:57:22.256Z,928.83
2017-02-19T00:57:26.709Z,928.84
2017-02-19T00:57:31.467Z,928.81
2017-02-19T00:57:36.024Z,928.82
2017-02-19T00:57:40.747Z,928.83
2017-02-19T00:57:45.300Z,928.83
2017-02-19T00:57:49.860Z,928.81
2017-02-19T00:57:54.568Z,928.8
2017-02-19T00:57:59.105Z,928.84
2017-02-19T00:58:03.801Z,928.87
2017-02-19T00:58:08.339Z,928.82
2017-02-19T00:58:12.751Z,928.81
2017-02-19T00:58:17.164Z,928.83
2017-02-19T00:58:21.891Z,928.8